createdAt,value
2023-01-17T00:01:00.120Z,11.10
2023-01-17T00:03:26.620Z,11.10
2023-01-17T00:05:53.138Z,11.00
2023-01-17T00:08:19.614Z,11.00
2023-01-17T00:10:46.095Z,11.00
2023-01-17T00:13:12.576Z,11.00
2023-01-17T00:15:39.053Z,11.00
2023-01-17T00:18:05.541Z,10.90
2023-01-17T00:20:32.062Z,11.00
2023-01-17T00:22:58.537Z,11.00
2023-01-17T00:25:25.043Z,10.90
2023-01-17T00:27:51.529Z,11.00
2023-01-17T00:30:18.031Z,11.00
2023-01-17T00:32:44.501Z,11.10
2023-01-17T00:35:10.997Z,11.00
2023-01-17T00:37:37.464Z,11.00
2023-01-17T00:40:03.949Z,11.00
2023-01-17T00:42:30.425Z,11.00
2023-01-17T00:44:56.918Z,10.90
2023-01-17T00:47:23.402Z,10.90
2023-01-17T00:49:49.871Z,11.00
2023-01-17T00:52:16.354Z,10.90
2023-01-17T00:54:42.844Z,11.00
2023-01-17T00:57:09.344Z,10.90
2023-01-17T00:59:35.843Z,10.80
2023-01-17T01:02:02.445Z,10.90
2023-01-17T01:04:28.959Z,10.90
2023-01-17T01:06:55.425Z,10.90
2023-01-17T01:09:21.892Z,10.90
2023-01-17T01:11:48.354Z,10.90
2023-01-17T01:14:14.875Z,10.80
2023-01-17T01:16:41.363Z,10.90
2023-01-17T01:19:07.851Z,10.90
2023-01-17T01:21:34.339Z,11.00
2023-01-17T01:24:00.835Z,11.00
2023-01-17T01:26:27.344Z,10.90
2023-01-17T01:28:53.810Z,10.90
2023-01-17T01:31:20.335Z,10.90
2023-01-17T01:33:46.842Z,10.80
2023-01-17T01:36:13.341Z,10.70
2023-01-17T01:38:39.798Z,10.80
2023-01-17T01:41:06.265Z,10.80
2023-01-17T01:43:32.752Z,10.90
2023-01-17T01:45:59.319Z,10.80
2023-01-17T01:48:25.831Z,10.80
2023-01-17T01:50:52.325Z,10.80
2023-01-17T01:53:18.793Z,10.70
2023-01-17T01:55:45.271Z,10.70
2023-01-17T01:58:11.725Z,10.80
2023-01-17T02:00:38.376Z,10.60
2023-01-17T02:03:04.878Z,10.50
2023-01-17T02:05:31.374Z,10.60
2023-01-17T02:07:57.850Z,10.70
2023-01-17T02:10:24.317Z,10.60
2023-01-17T02:12:50.788Z,10.70
2023-01-17T02:15:17.264Z,10.70
2023-01-17T02:17:43.727Z,10.60
2023-01-17T02:20:10.222Z,10.70
2023-01-17T02:22:36.698Z,10.70
2023-01-17T02:25:03.181Z,10.70
2023-01-17T02:27:29.655Z,10.70
2023-01-17T02:29:56.153Z,10.60
2023-01-17T02:32:22.644Z,10.60
2023-01-17T02:34:49.147Z,10.60
2023-01-17T02:37:15.615Z,10.60
2023-01-17T02:39:42.095Z,10.60
2023-01-17T02:42:09.681Z,10.60
2023-01-17T02:44:36.147Z,10.60
2023-01-17T02:47:02.614Z,10.70
2023-01-17T02:49:29.096Z,10.60
2023-01-17T02:51:55.572Z,10.60
2023-01-17T02:54:22.028Z,10.60
2023-01-17T02:56:48.511Z,10.50
2023-01-17T02:59:14.975Z,10.50
2023-01-17T03:01:41.568Z,10.50
2023-01-17T03:04:08.079Z,10.50
2023-01-17T03:06:34.556Z,10.50
2023-01-17T03:09:01.035Z,10.40
2023-01-17T03:11:27.505Z,10.40
2023-01-17T03:13:53.967Z,10.40
2023-01-17T03:16:20.434Z,10.40
2023-01-17T03:18:46.923Z,10.30
2023-01-17T03:21:13.397Z,10.40
2023-01-17T03:23:40.065Z,10.30
2023-01-17T03:26:06.569Z,10.30
2023-01-17T03:28:33.028Z,10.30
2023-01-17T03:30:59.617Z,10.30
2023-01-17T03:33:26.100Z,10.30
2023-01-17T03:35:52.605Z,10.30
2023-01-17T03:38:19.091Z,10.40
2023-01-17T03:40:45.558Z,10.40
2023-01-17T03:43:12.028Z,10.40
2023-01-17T03:45:38.529Z,10.40
2023-01-17T03:48:05.004Z,10.40
2023-01-17T03:50:31.489Z,10.40
2023-01-17T03:52:57.974Z,10.40
2023-01-17T03:55:24.453Z,10.50
2023-01-17T03:57:50.928Z,10.50
2023-01-17T04:00:17.403Z,10.50
2023-01-17T04:02:43.908Z,10.50
2023-01-17T04:05:10.424Z,10.40
2023-01-17T04:07:36.927Z,10.40
2023-01-17T04:10:03.421Z,10.40
2023-01-17T04:12:29.898Z,10.40
2023-01-17T04:14:56.369Z,10.50
2023-01-17T04:17:22.858Z,10.50
2023-01-17T04:19:49.331Z,10.50
2023-01-17T04:22:15.829Z,10.40
2023-01-17T04:24:42.290Z,10.40
2023-01-17T04:27:08.773Z,10.40
2023-01-17T04:29:35.248Z,10.40
2023-01-17T04:32:01.730Z,10.40
2023-01-17T04:34:28.204Z,10.50
2023-01-17T04:36:54.722Z,10.50
2023-01-17T04:39:21.197Z,10.50
2023-01-17T04:41:47.693Z,10.50
2023-01-17T04:44:14.186Z,10.50
2023-01-17T04:46:40.666Z,10.60
2023-01-17T04:49:07.180Z,10.60
2023-01-17T04:51:33.679Z,10.60
2023-01-17T04:54:00.171Z,10.50
2023-01-17T04:56:26.681Z,10.50
2023-01-17T04:58:53.153Z,10.60
2023-01-17T05:01:19.734Z,10.60
2023-01-17T05:03:46.278Z,10.60
2023-01-17T05:06:12.945Z,10.60
2023-01-17T05:08:39.463Z,10.50
2023-01-17T05:11:05.950Z,10.50
2023-01-17T05:13:32.462Z,10.60
2023-01-17T05:15:58.963Z,10.50
2023-01-17T05:18:25.465Z,10.50
2023-01-17T05:20:51.948Z,10.50
2023-01-17T05:23:18.437Z,10.60
2023-01-17T05:25:44.945Z,10.60
2023-01-17T05:28:11.405Z,10.60
2023-01-17T05:30:37.857Z,10.60
2023-01-17T05:33:04.327Z,10.50
2023-01-17T05:35:30.788Z,10.60
2023-01-17T05:37:57.276Z,10.50
2023-01-17T05:40:23.756Z,10.60
2023-01-17T05:42:50.251Z,10.50
2023-01-17T05:45:16.731Z,10.50
2023-01-17T05:47:43.210Z,10.60
2023-01-17T05:50:09.678Z,10.60
2023-01-17T05:52:36.160Z,10.60
2023-01-17T05:55:02.637Z,10.60
2023-01-17T05:57:29.117Z,10.60
2023-01-17T05:59:55.603Z,10.70
2023-01-17T06:02:22.169Z,10.50
2023-01-17T06:04:48.730Z,10.50
2023-01-17T06:07:15.224Z,10.50
2023-01-17T06:09:41.687Z,10.50
2023-01-17T06:12:08.168Z,10.50
2023-01-17T06:14:34.637Z,10.50
2023-01-17T06:17:01.130Z,10.50
2023-01-17T06:19:27.609Z,10.50
2023-01-17T06:21:54.116Z,10.60
2023-01-17T06:24:20.578Z,10.60
2023-01-17T06:26:47.094Z,10.60
2023-01-17T06:29:13.669Z,10.50
2023-01-17T06:31:40.203Z,10.60
2023-01-17T06:34:06.727Z,10.50
2023-01-17T06:36:33.215Z,10.60
2023-01-17T06:38:59.683Z,10.60
2023-01-17T06:41:26.170Z,10.60
2023-01-17T06:43:52.646Z,10.60
2023-01-17T06:46:19.131Z,10.60
2023-01-17T06:48:45.654Z,10.60
2023-01-17T06:51:12.136Z,10.60
2023-01-17T06:53:38.624Z,10.60
2023-01-17T06:56:05.084Z,10.60
2023-01-17T06:58:31.554Z,10.60
2023-01-17T07:00:58.147Z,10.60
2023-01-17T07:03:27.561Z,10.60
2023-01-17T07:05:54.100Z,10.60
2023-01-17T07:08:20.633Z,10.60
2023-01-17T07:10:47.137Z,10.60
2023-01-17T07:13:13.711Z,10.70
2023-01-17T07:15:40.183Z,10.70
2023-01-17T07:18:06.654Z,10.60
2023-01-17T07:20:33.127Z,10.70
2023-01-17T07:22:59.607Z,10.70
2023-01-17T07:25:27.718Z,10.70
2023-01-17T07:27:54.279Z,10.70
2023-01-17T07:30:20.754Z,10.70
2023-01-17T07:32:47.222Z,10.70
2023-01-17T07:35:13.715Z,10.60
2023-01-17T07:37:40.226Z,10.60
2023-01-17T07:40:06.711Z,10.70
2023-01-17T07:42:33.218Z,10.70
2023-01-17T07:44:59.687Z,10.70
2023-01-17T07:47:26.150Z,10.60
2023-01-17T07:49:52.616Z,10.60
2023-01-17T07:52:19.106Z,10.60
2023-01-17T07:54:45.593Z,10.60
2023-01-17T07:57:12.069Z,10.60
2023-01-17T07:59:38.586Z,10.60
2023-01-17T08:02:05.090Z,10.70
2023-01-17T08:04:31.623Z,10.70
2023-01-17T08:06:58.090Z,10.70
2023-01-17T08:09:24.563Z,10.70
2023-01-17T08:11:51.039Z,10.70
2023-01-17T08:14:17.524Z,10.70
2023-01-17T08:16:44.053Z,10.80
2023-01-17T08:19:10.545Z,10.80
2023-01-17T08:21:37.068Z,10.70
2023-01-17T08:24:03.570Z,10.70
2023-01-17T08:26:30.036Z,10.70
2023-01-17T08:28:56.528Z,10.70
2023-01-17T08:31:23.014Z,10.70
2023-01-17T08:33:49.500Z,10.70
2023-01-17T08:36:15.982Z,10.80
2023-01-17T08:38:42.478Z,10.70
2023-01-17T08:41:08.949Z,10.70
2023-01-17T08:43:35.444Z,10.70
2023-01-17T08:46:02.009Z,10.60
2023-01-17T08:48:28.588Z,10.60
2023-01-17T08:50:55.090Z,10.60
2023-01-17T08:53:21.571Z,10.60
2023-01-17T08:55:48.059Z,10.70
2023-01-17T08:58:14.534Z,10.70
2023-01-17T09:00:41.040Z,10.70
2023-01-17T09:03:07.544Z,10.70
2023-01-17T09:05:34.005Z,10.70
2023-01-17T09:08:00.475Z,10.70
2023-01-17T09:10:26.950Z,10.70
2023-01-17T09:12:53.425Z,10.60
2023-01-17T09:15:21.646Z,10.70
2023-01-17T09:17:48.118Z,10.70
2023-01-17T09:20:14.602Z,10.80
2023-01-17T09:22:41.086Z,10.80
2023-01-17T09:25:07.574Z,10.70
2023-01-17T09:27:34.056Z,10.70
2023-01-17T09:30:00.551Z,10.70
2023-01-17T09:32:27.077Z,10.70
2023-01-17T09:34:53.569Z,10.70
2023-01-17T09:37:20.064Z,10.70
2023-01-17T09:39:46.547Z,10.70
2023-01-17T09:42:13.026Z,10.70
2023-01-17T09:44:39.516Z,10.70
2023-01-17T09:47:06.018Z,10.70
2023-01-17T09:49:32.592Z,10.80
2023-01-17T09:51:59.077Z,10.70
2023-01-17T09:54:28.703Z,10.80
2023-01-17T09:56:55.181Z,10.80
2023-01-17T09:59:21.670Z,10.80
2023-01-17T10:01:48.354Z,10.80
2023-01-17T10:04:15.049Z,10.80
2023-01-17T10:06:41.578Z,10.70
2023-01-17T10:09:08.078Z,10.70
2023-01-17T10:11:34.603Z,10.60
2023-01-17T10:14:01.094Z,10.70
2023-01-17T10:16:27.650Z,10.70
2023-01-17T10:18:54.159Z,10.70
2023-01-17T10:21:20.638Z,10.70
2023-01-17T10:23:47.126Z,10.80
2023-01-17T10:26:13.612Z,10.80
2023-01-17T10:28:40.097Z,10.80
2023-01-17T10:31:06.593Z,10.80
2023-01-17T10:33:33.099Z,10.80
2023-01-17T10:35:59.586Z,10.80
2023-01-17T10:38:26.077Z,10.80
2023-01-17T10:40:52.588Z,10.80
2023-01-17T10:43:19.095Z,10.80
2023-01-17T10:45:45.651Z,10.80
2023-01-17T10:48:12.174Z,10.80
2023-01-17T10:50:38.657Z,10.80
2023-01-17T10:53:05.120Z,10.80
2023-01-17T10:55:31.559Z,10.80
2023-01-17T10:57:57.993Z,10.80
2023-01-17T11:00:24.496Z,10.80
2023-01-17T11:02:51.074Z,10.80
2023-01-17T11:05:17.672Z,10.90
2023-01-17T11:07:44.172Z,10.90
2023-01-17T11:10:10.643Z,10.80
2023-01-17T11:12:37.108Z,10.80
2023-01-17T11:15:03.587Z,10.80
2023-01-17T11:17:32.897Z,10.80
2023-01-17T11:19:59.362Z,10.80
2023-01-17T11:22:25.846Z,10.70
2023-01-17T11:24:52.330Z,10.70
2023-01-17T11:27:18.804Z,10.80
2023-01-17T11:29:45.290Z,10.80
2023-01-17T11:32:11.789Z,10.80
2023-01-17T11:34:38.264Z,10.80
2023-01-17T11:37:04.742Z,10.70
2023-01-17T11:39:31.231Z,10.80
2023-01-17T11:41:57.715Z,10.80
2023-01-17T11:44:24.193Z,10.80
2023-01-17T11:46:50.664Z,10.80
2023-01-17T11:49:17.144Z,10.80
2023-01-17T11:51:43.608Z,10.80
2023-01-17T11:54:10.094Z,10.80
2023-01-17T11:56:36.612Z,10.80
2023-01-17T11:59:03.098Z,10.80
2023-01-17T12:01:29.564Z,10.80
2023-01-17T12:03:56.049Z,10.90
2023-01-17T12:06:22.525Z,10.90
2023-01-17T12:08:49.017Z,10.80
2023-01-17T12:11:15.492Z,10.90
2023-01-17T12:13:42.010Z,10.80
2023-01-17T12:16:08.516Z,10.80
2023-01-17T12:18:35.053Z,10.90
2023-01-17T12:21:01.558Z,10.90
2023-01-17T12:23:28.031Z,10.90
2023-01-17T12:25:54.522Z,10.90
2023-01-17T12:28:21.199Z,10.90
2023-01-17T12:30:47.657Z,10.90
2023-01-17T12:33:14.160Z,10.80
2023-01-17T12:35:40.637Z,10.90
2023-01-17T12:38:07.141Z,10.90
2023-01-17T12:40:33.630Z,10.90
2023-01-17T12:43:00.265Z,10.90
2023-01-17T12:45:26.747Z,10.90
2023-01-17T12:47:53.231Z,10.90
2023-01-17T12:50:19.714Z,10.90
2023-01-17T12:52:46.174Z,10.90
2023-01-17T12:55:12.668Z,11.00
2023-01-17T12:57:39.141Z,10.90
2023-01-17T13:00:05.620Z,10.90
2023-01-17T13:02:32.102Z,10.90
2023-01-17T13:04:59.266Z,11.00
2023-01-17T13:07:25.847Z,11.00
2023-01-17T13:09:52.343Z,10.90
2023-01-17T13:12:18.847Z,10.90
2023-01-17T13:14:45.314Z,11.00
2023-01-17T13:17:11.788Z,11.00
2023-01-17T13:19:38.273Z,11.00
2023-01-17T13:22:04.770Z,11.00
2023-01-17T13:24:31.263Z,11.00
2023-01-17T13:26:57.749Z,10.90
2023-01-17T13:29:24.231Z,10.90
2023-01-17T13:31:50.818Z,11.00
2023-01-17T13:34:17.344Z,11.00
2023-01-17T13:36:43.815Z,11.00
2023-01-17T13:39:10.292Z,11.00
2023-01-17T13:41:36.775Z,11.00
2023-01-17T13:44:03.819Z,11.00
2023-01-17T13:46:30.300Z,11.00
2023-01-17T13:48:56.763Z,11.00
2023-01-17T13:51:23.221Z,11.00
2023-01-17T13:53:49.680Z,10.90
2023-01-17T13:56:16.150Z,11.00
2023-01-17T13:58:42.639Z,11.00
2023-01-17T14:01:09.274Z,11.00
2023-01-17T14:03:39.848Z,11.00
2023-01-17T14:06:06.327Z,11.00
2023-01-17T14:08:32.803Z,11.00
2023-01-17T14:10:59.277Z,11.10
2023-01-17T14:13:25.773Z,11.10
2023-01-17T14:15:52.271Z,11.00
2023-01-17T14:18:18.732Z,11.10
2023-01-17T14:20:45.194Z,11.10
2023-01-17T14:23:11.692Z,11.10
2023-01-17T14:25:38.156Z,11.10
2023-01-17T14:28:04.619Z,11.10
2023-01-17T14:30:31.087Z,11.10
2023-01-17T14:32:57.560Z,11.10
2023-01-17T14:35:24.026Z,11.10
2023-01-17T14:37:50.651Z,11.10
2023-01-17T14:40:17.288Z,11.10
2023-01-17T14:42:43.811Z,11.10
2023-01-17T14:45:10.297Z,11.20
2023-01-17T14:47:36.808Z,11.20
2023-01-17T14:50:03.281Z,11.20
2023-01-17T14:52:29.801Z,11.10
2023-01-17T14:54:56.275Z,11.20
2023-01-17T14:57:22.787Z,11.20
2023-01-17T14:59:49.272Z,11.10
2023-01-17T15:02:15.967Z,11.10
2023-01-17T15:04:42.587Z,11.10
2023-01-17T15:07:09.077Z,11.10
2023-01-17T15:09:35.552Z,11.10
2023-01-17T15:12:02.043Z,11.10
2023-01-17T15:14:28.539Z,11.10
2023-01-17T15:16:55.080Z,11.20
2023-01-17T15:19:21.586Z,11.10
2023-01-17T15:21:48.100Z,11.10
2023-01-17T15:24:14.582Z,11.10
2023-01-17T15:26:45.953Z,11.10
2023-01-17T15:29:12.444Z,11.10
2023-01-17T15:31:38.920Z,11.10
2023-01-17T15:34:05.402Z,11.10
2023-01-17T15:36:31.893Z,11.10
2023-01-17T15:38:58.382Z,11.10
2023-01-17T15:41:24.877Z,11.10
2023-01-17T15:43:51.402Z,11.10
2023-01-17T15:46:17.915Z,11.10
2023-01-17T15:48:44.468Z,11.10
2023-01-17T15:51:10.962Z,11.10
2023-01-17T15:53:37.493Z,11.10
2023-01-17T15:56:03.975Z,11.10
2023-01-17T15:58:30.467Z,11.20
2023-01-17T16:00:57.060Z,11.20
2023-01-17T16:03:23.643Z,11.10
2023-01-17T16:05:50.129Z,11.10
2023-01-17T16:08:16.635Z,11.10
2023-01-17T16:10:43.127Z,11.10
2023-01-17T16:13:09.627Z,11.10
2023-01-17T16:15:36.174Z,11.10
2023-01-17T16:18:02.689Z,11.20
2023-01-17T16:20:29.173Z,11.20
2023-01-17T16:22:55.641Z,11.20
2023-01-17T16:25:22.138Z,11.20
2023-01-17T16:27:48.795Z,11.10
2023-01-17T16:30:15.423Z,11.10
2023-01-17T16:32:41.867Z,11.10
2023-01-17T16:35:08.345Z,11.10
2023-01-17T16:37:34.821Z,11.10
2023-01-17T16:40:01.334Z,11.10
2023-01-17T16:42:28.646Z,11.20
2023-01-17T16:44:55.199Z,11.10
2023-01-17T16:47:21.665Z,11.10
2023-01-17T16:49:48.192Z,11.10
2023-01-17T16:52:14.691Z,11.10
2023-01-17T16:54:41.195Z,11.10
2023-01-17T16:57:07.686Z,11.10
2023-01-17T16:59:46.074Z,11.10
2023-01-17T17:02:16.546Z,11.10
2023-01-17T17:04:43.024Z,11.10
2023-01-17T17:07:09.508Z,11.10
2023-01-17T17:09:36.023Z,11.10
2023-01-17T17:12:02.521Z,11.10
2023-01-17T17:14:29.002Z,11.10
2023-01-17T17:16:55.478Z,11.10
2023-01-17T17:19:21.970Z,11.10
2023-01-17T17:21:48.463Z,11.10
2023-01-17T17:24:14.982Z,11.10
2023-01-17T17:26:41.459Z,11.10
2023-01-17T17:29:07.949Z,11.10
2023-01-17T17:31:34.413Z,11.10
2023-01-17T17:34:00.887Z,11.10
2023-01-17T17:36:27.367Z,11.10
2023-01-17T17:38:53.823Z,11.10
2023-01-17T17:41:20.349Z,11.10
2023-01-17T17:43:46.832Z,11.10
2023-01-17T17:46:13.360Z,11.10
2023-01-17T17:48:39.847Z,11.10
2023-01-17T17:51:06.327Z,11.10
2023-01-17T17:53:32.802Z,11.10
2023-01-17T17:55:59.297Z,11.10
2023-01-17T17:58:25.779Z,11.10
2023-01-17T18:00:52.271Z,11.10
2023-01-17T18:03:18.758Z,11.10
2023-01-17T18:05:45.227Z,11.10
2023-01-17T18:08:11.696Z,11.10
2023-01-17T18:10:38.165Z,11.10
2023-01-17T18:13:04.639Z,11.00
2023-01-17T18:15:31.103Z,11.10
2023-01-17T18:17:57.581Z,11.10
2023-01-17T18:20:24.097Z,11.00
2023-01-17T18:22:50.560Z,11.10
2023-01-17T18:25:17.045Z,11.10
2023-01-17T18:27:43.524Z,11.10
2023-01-17T18:30:10.020Z,11.10
2023-01-17T18:32:36.488Z,11.00
2023-01-17T18:35:03.153Z,11.10
2023-01-17T18:37:29.643Z,11.00
2023-01-17T18:39:56.121Z,11.00
2023-01-17T18:42:23.503Z,11.10
2023-01-17T18:44:50.032Z,11.10
2023-01-17T18:47:16.527Z,11.10
2023-01-17T18:49:42.985Z,11.10
2023-01-17T18:52:09.474Z,11.10
2023-01-17T18:54:35.960Z,11.10
2023-01-17T18:57:02.467Z,11.10
2023-01-17T18:59:28.938Z,11.10
2023-01-17T19:01:55.413Z,11.10
2023-01-17T19:04:21.884Z,11.10
2023-01-17T19:06:48.400Z,11.10
2023-01-17T19:09:14.927Z,11.00
2023-01-17T19:11:41.398Z,11.10
2023-01-17T19:14:07.888Z,11.10
2023-01-17T19:16:34.442Z,11.00
2023-01-17T19:19:00.971Z,11.10
2023-01-17T19:21:27.540Z,11.10
2023-01-17T19:23:54.067Z,11.00
2023-01-17T19:26:20.548Z,11.00
2023-01-17T19:28:47.052Z,11.10
2023-01-17T19:31:13.599Z,11.00
2023-01-17T19:33:40.105Z,11.00
2023-01-17T19:36:06.604Z,11.00
2023-01-17T19:38:33.074Z,11.00
2023-01-17T19:40:59.573Z,11.10
2023-01-17T19:43:26.050Z,11.00
2023-01-17T19:45:52.642Z,11.00
2023-01-17T19:48:19.147Z,11.00
2023-01-17T19:50:45.645Z,11.00
2023-01-17T19:53:12.128Z,11.00
2023-01-17T19:55:38.653Z,11.00
2023-01-17T19:58:05.136Z,11.00
2023-01-17T20:00:31.633Z,11.00
2023-01-17T20:02:58.140Z,11.00
2023-01-17T20:05:24.627Z,11.00
2023-01-17T20:07:51.103Z,11.00
2023-01-17T20:10:17.625Z,11.00
2023-01-17T20:12:44.114Z,11.00
2023-01-17T20:15:10.583Z,11.00
2023-01-17T20:17:37.056Z,11.00
2023-01-17T20:20:03.537Z,11.00
2023-01-17T20:22:30.044Z,11.00
2023-01-17T20:24:56.504Z,11.00
2023-01-17T20:27:22.998Z,11.00
2023-01-17T20:29:49.513Z,11.00
2023-01-17T20:32:16.018Z,11.00
2023-01-17T20:34:44.683Z,11.00
2023-01-17T20:37:11.934Z,11.00
2023-01-17T20:39:38.404Z,11.00
2023-01-17T20:42:04.911Z,11.00
2023-01-17T20:44:31.397Z,11.00
2023-01-17T20:46:57.897Z,11.00
2023-01-17T20:49:24.383Z,11.00
2023-01-17T20:51:50.886Z,10.90
2023-01-17T20:54:17.377Z,11.00
2023-01-17T20:56:43.910Z,11.00
2023-01-17T20:59:10.387Z,11.00
2023-01-17T21:01:36.963Z,11.00
2023-01-17T21:04:03.562Z,11.00
2023-01-17T21:06:30.046Z,11.00
2023-01-17T21:08:56.542Z,11.00
2023-01-17T21:11:23.029Z,11.00
2023-01-17T21:13:49.530Z,11.00
2023-01-17T21:16:16.025Z,11.00
2023-01-17T21:18:42.539Z,10.90
2023-01-17T21:21:09.034Z,11.00
2023-01-17T21:23:35.547Z,11.00
2023-01-17T21:26:02.017Z,11.00
2023-01-17T21:28:28.484Z,11.00
2023-01-17T21:30:54.983Z,10.90
2023-01-17T21:33:21.478Z,10.90
2023-01-17T21:35:47.965Z,10.90
2023-01-17T21:38:14.448Z,10.90
2023-01-17T21:40:40.924Z,10.90
2023-01-17T21:43:07.407Z,10.90
2023-01-17T21:45:33.879Z,10.90
2023-01-17T21:48:00.383Z,10.90
2023-01-17T21:50:33.332Z,10.90
2023-01-17T21:53:00.283Z,10.90
2023-01-17T21:55:26.990Z,10.90
2023-01-17T21:57:53.471Z,10.90
2023-01-17T22:00:19.941Z,10.90
2023-01-17T22:02:46.459Z,10.90
2023-01-17T22:05:12.972Z,10.90
2023-01-17T22:07:39.483Z,10.90
2023-01-17T22:10:05.984Z,10.90
2023-01-17T22:12:32.460Z,10.90
2023-01-17T22:14:58.949Z,10.80
2023-01-17T22:17:25.431Z,10.90
2023-01-17T22:19:51.903Z,10.90
2023-01-17T22:22:18.381Z,10.90
2023-01-17T22:24:44.872Z,10.90
2023-01-17T22:27:11.357Z,10.90
2023-01-17T22:29:37.836Z,10.90
2023-01-17T22:32:04.325Z,10.90
2023-01-17T22:34:30.817Z,10.90
2023-01-17T22:36:57.292Z,10.90
2023-01-17T22:39:23.774Z,10.90
2023-01-17T22:41:50.274Z,10.90
2023-01-17T22:44:16.752Z,10.80
2023-01-17T22:46:43.274Z,10.80
2023-01-17T22:49:09.831Z,10.90
2023-01-17T22:51:36.327Z,10.90
2023-01-17T22:54:02.846Z,10.90
2023-01-17T22:56:29.353Z,10.90
2023-01-17T22:58:55.854Z,10.90
2023-01-17T23:01:22.448Z,10.90
2023-01-17T23:03:48.989Z,10.80
2023-01-17T23:06:15.455Z,10.90
2023-01-17T23:08:41.932Z,10.90
2023-01-17T23:11:08.446Z,10.80
2023-01-17T23:13:34.901Z,10.80
2023-01-17T23:16:01.415Z,10.90
2023-01-17T23:18:27.900Z,10.80
2023-01-17T23:20:54.386Z,10.80
2023-01-17T23:23:20.844Z,10.90
2023-01-17T23:25:47.296Z,10.80
2023-01-17T23:28:13.792Z,10.80
2023-01-17T23:30:40.301Z,10.80
2023-01-17T23:33:06.786Z,10.80
2023-01-17T23:35:33.274Z,10.80
2023-01-17T23:37:59.727Z,10.80
2023-01-17T23:40:26.230Z,10.80
2023-01-17T23:42:52.717Z,10.80
2023-01-17T23:45:19.212Z,10.80
2023-01-17T23:47:45.670Z,10.80
2023-01-17T23:50:12.185Z,10.80
2023-01-17T23:52:38.675Z,10.80
2023-01-17T23:55:05.136Z,10.80
2023-01-17T23:57:31.618Z,10.80
2023-01-17T23:59:58.101Z,10.80
